createdAt,value
2023-04-30T00:02:12.664Z,7.50
2023-04-30T00:04:39.673Z,7.40
2023-04-30T00:07:06.579Z,7.40
2023-04-30T00:09:33.404Z,7.30
2023-04-30T00:12:00.330Z,7.30
2023-04-30T00:14:27.345Z,7.30
2023-04-30T00:16:54.259Z,7.30
2023-04-30T00:19:21.088Z,7.40
2023-04-30T00:21:47.987Z,7.40
2023-04-30T00:24:14.885Z,7.40
2023-04-30T00:26:43.888Z,7.40
2023-04-30T00:29:11.669Z,7.30
2023-04-30T00:31:39.316Z,7.30
2023-04-30T00:34:06.234Z,7.40
2023-04-30T00:36:33.420Z,7.40
2023-04-30T00:39:00.365Z,7.30
2023-04-30T00:41:28.479Z,7.40
2023-04-30T00:43:55.389Z,7.30
2023-04-30T00:46:22.337Z,7.30
2023-04-30T00:48:50.341Z,7.40
2023-04-30T00:51:17.269Z,7.40
2023-04-30T00:53:44.215Z,7.40
2023-04-30T00:56:12.842Z,7.40
2023-04-30T00:58:40.680Z,7.40
2023-04-30T01:01:07.949Z,7.40
2023-04-30T01:03:38.250Z,7.40
2023-04-30T01:06:05.618Z,7.40
2023-04-30T01:08:33.428Z,7.40
2023-04-30T01:11:17.483Z,7.40
2023-04-30T01:14:10.582Z,7.40
2023-04-30T01:16:47.237Z,7.50
2023-04-30T01:19:34.989Z,7.40
2023-04-30T01:22:04.576Z,7.50
2023-04-30T01:25:04.408Z,7.50
2023-04-30T01:27:49.667Z,7.50
2023-04-30T01:30:18.640Z,7.40
2023-04-30T01:32:45.575Z,7.40
2023-04-30T01:35:12.647Z,7.40
2023-04-30T01:38:10.551Z,7.30
2023-04-30T01:40:52.902Z,7.30
2023-04-30T01:43:41.508Z,7.30
2023-04-30T01:46:25.453Z,7.30
2023-04-30T01:49:07.209Z,7.30
2023-04-30T01:51:45.929Z,7.30
2023-04-30T01:54:33.206Z,7.30
2023-04-30T01:57:36.132Z,7.40
2023-04-30T02:00:04.863Z,7.40
2023-04-30T02:02:31.835Z,7.50
2023-04-30T02:04:58.765Z,7.50
2023-04-30T02:07:40.879Z,7.50
2023-04-30T02:10:08.836Z,7.50
2023-04-30T02:12:35.884Z,7.60
2023-04-30T02:15:04.311Z,7.60
2023-04-30T02:17:32.272Z,7.50
2023-04-30T02:19:59.793Z,7.50
2023-04-30T02:22:27.198Z,7.40
2023-04-30T02:24:55.765Z,7.40
2023-04-30T02:27:25.819Z,7.50
2023-04-30T02:29:54.033Z,7.50
2023-04-30T02:32:21.289Z,7.50
2023-04-30T02:34:48.399Z,7.50
2023-04-30T02:37:15.573Z,7.50
2023-04-30T02:39:42.911Z,7.60
2023-04-30T02:42:09.906Z,7.60
2023-04-30T02:44:36.771Z,7.60
2023-04-30T02:47:03.654Z,7.50
2023-04-30T02:49:30.535Z,7.50
2023-04-30T02:51:57.459Z,7.50
2023-04-30T02:54:24.516Z,7.50
2023-04-30T02:56:51.685Z,7.50
2023-04-30T02:59:18.532Z,7.60
2023-04-30T03:01:45.540Z,7.60
2023-04-30T03:04:12.469Z,7.60
2023-04-30T03:06:39.415Z,7.60
2023-04-30T03:09:06.838Z,7.60
2023-04-30T03:11:37.459Z,7.60
2023-04-30T03:14:05.040Z,7.60
2023-04-30T03:16:32.053Z,7.60
2023-04-30T03:18:59.024Z,7.60
2023-04-30T03:21:25.892Z,7.60
2023-04-30T03:23:52.827Z,7.60
2023-04-30T03:26:20.982Z,7.60
2023-04-30T03:28:48.022Z,7.60
2023-04-30T03:31:15.114Z,7.50
2023-04-30T03:33:42.026Z,7.50
2023-04-30T03:36:08.966Z,7.60
2023-04-30T03:38:38.633Z,7.60
2023-04-30T03:41:05.657Z,7.60
2023-04-30T03:43:32.536Z,7.60
2023-04-30T03:45:59.483Z,7.60
2023-04-30T03:48:27.184Z,7.60
2023-04-30T03:50:54.409Z,7.60
2023-04-30T03:53:21.342Z,7.50
2023-04-30T03:55:50.237Z,7.50
2023-04-30T03:58:17.296Z,7.50
2023-04-30T04:00:45.851Z,7.50
2023-04-30T04:03:13.069Z,7.50
2023-04-30T04:05:40.115Z,7.60
2023-04-30T04:08:07.537Z,7.60
2023-04-30T04:10:35.465Z,7.60
2023-04-30T04:13:02.359Z,7.60
2023-04-30T04:15:29.290Z,7.60
2023-04-30T04:17:56.242Z,7.60
2023-04-30T04:20:23.119Z,7.60
2023-04-30T04:22:49.988Z,7.50
2023-04-30T04:25:18.196Z,7.60
2023-04-30T04:27:45.191Z,7.60
2023-04-30T04:30:13.701Z,7.60
2023-04-30T04:32:46.739Z,7.60
2023-04-30T04:35:15.102Z,7.60
2023-04-30T04:37:42.253Z,7.60
2023-04-30T04:40:10.902Z,7.60
2023-04-30T04:42:38.797Z,7.60
2023-04-30T04:45:09.785Z,7.70
2023-04-30T04:47:37.748Z,7.70
2023-04-30T04:50:05.033Z,7.70
2023-04-30T04:52:31.970Z,7.70
2023-04-30T04:54:58.852Z,7.70
2023-04-30T04:57:25.857Z,7.70
2023-04-30T04:59:53.176Z,7.80
2023-04-30T05:02:21.317Z,7.70
2023-04-30T05:04:50.527Z,7.80
2023-04-30T05:07:18.294Z,7.80
2023-04-30T05:09:46.979Z,7.80
2023-04-30T05:12:14.652Z,7.80
2023-04-30T05:14:41.648Z,7.80
2023-04-30T05:17:08.786Z,7.80
2023-04-30T05:19:35.759Z,7.80
2023-04-30T05:22:02.670Z,7.80
2023-04-30T05:24:30.119Z,7.90
2023-04-30T05:26:57.056Z,7.90
2023-04-30T05:29:23.992Z,7.80
2023-04-30T05:31:50.950Z,7.90
2023-04-30T05:34:17.829Z,7.90
2023-04-30T05:36:45.604Z,7.90
2023-04-30T05:39:12.552Z,7.90
2023-04-30T05:41:39.523Z,7.90
2023-04-30T05:44:06.598Z,7.90
2023-04-30T05:46:33.629Z,7.90
2023-04-30T05:49:00.532Z,8.00
2023-04-30T05:51:28.042Z,8.00
2023-04-30T05:53:55.113Z,8.00
2023-04-30T05:56:22.112Z,8.10
2023-04-30T05:58:51.099Z,8.10
2023-04-30T06:01:19.509Z,8.10
2023-04-30T06:03:46.370Z,8.00
2023-04-30T06:06:13.328Z,8.00
2023-04-30T06:08:45.894Z,8.00
2023-04-30T06:11:13.638Z,8.00
2023-04-30T06:13:41.276Z,8.00
2023-04-30T06:16:08.714Z,8.00
2023-04-30T06:18:35.825Z,8.00
2023-04-30T06:21:02.701Z,8.00
2023-04-30T06:23:29.612Z,8.00
2023-04-30T06:25:56.602Z,8.10
2023-04-30T06:28:23.499Z,8.00
2023-04-30T06:30:50.995Z,8.00
2023-04-30T06:33:18.065Z,8.00
2023-04-30T06:35:44.945Z,8.00
2023-04-30T06:38:11.838Z,8.00
2023-04-30T06:40:38.814Z,8.10
2023-04-30T06:43:05.889Z,8.10
2023-04-30T06:45:32.738Z,8.10
2023-04-30T06:47:59.734Z,8.10
2023-04-30T06:50:26.800Z,8.20
2023-04-30T06:52:53.690Z,8.20
2023-04-30T06:55:20.783Z,8.20
2023-04-30T06:57:47.971Z,8.10
2023-04-30T07:00:15.545Z,8.10
2023-04-30T07:02:42.542Z,8.10
2023-04-30T07:05:11.340Z,8.10
2023-04-30T07:07:38.292Z,8.10
2023-04-30T07:10:05.627Z,8.20
2023-04-30T07:12:32.514Z,8.20
2023-04-30T07:14:59.401Z,8.30
2023-04-30T07:17:27.704Z,8.30
2023-04-30T07:19:55.054Z,8.30
2023-04-30T07:22:22.167Z,8.30
2023-04-30T07:24:49.050Z,8.20
2023-04-30T07:27:16.132Z,8.20
2023-04-30T07:29:43.022Z,8.30
2023-04-30T07:32:09.905Z,8.30
2023-04-30T07:34:36.767Z,8.30
2023-04-30T07:37:03.647Z,8.30
2023-04-30T07:39:31.232Z,8.30
2023-04-30T07:41:58.098Z,8.30
2023-04-30T07:44:24.949Z,8.40
2023-04-30T07:46:51.966Z,8.30
2023-04-30T07:49:18.848Z,8.40
2023-04-30T07:51:46.886Z,8.30
2023-04-30T07:54:14.166Z,8.40
2023-04-30T07:56:41.944Z,8.40
2023-04-30T07:59:08.858Z,8.40
2023-04-30T08:01:36.016Z,8.40
2023-04-30T08:04:03.117Z,8.40
2023-04-30T08:06:30.252Z,8.40
2023-04-30T08:08:57.326Z,8.40
2023-04-30T08:11:24.253Z,8.40
2023-04-30T08:13:51.225Z,8.50
2023-04-30T08:16:18.157Z,8.40
2023-04-30T08:18:46.643Z,8.40
2023-04-30T08:21:13.944Z,8.40
2023-04-30T08:23:40.975Z,8.40
2023-04-30T08:26:07.998Z,8.40
2023-04-30T08:28:34.861Z,8.50
2023-04-30T08:31:01.779Z,8.40
2023-04-30T08:33:28.671Z,8.50
2023-04-30T08:35:55.766Z,8.50
2023-04-30T08:38:22.713Z,8.50
2023-04-30T08:40:56.875Z,8.50
2023-04-30T08:43:24.296Z,8.50
2023-04-30T08:45:52.087Z,8.50
2023-04-30T08:48:21.272Z,8.50
2023-04-30T08:50:48.225Z,8.60
2023-04-30T08:53:17.529Z,8.50
2023-04-30T08:55:45.102Z,8.50
2023-04-30T08:58:12.050Z,8.50
2023-04-30T09:00:39.910Z,8.50
2023-04-30T09:03:08.414Z,8.50
2023-04-30T09:05:36.558Z,8.50
2023-04-30T09:08:04.326Z,8.50
2023-04-30T09:10:35.350Z,8.60
2023-04-30T09:13:03.792Z,8.60
2023-04-30T09:15:32.612Z,8.60
2023-04-30T09:18:17.694Z,8.60
2023-04-30T09:21:05.668Z,8.60
2023-04-30T09:23:32.553Z,8.70
2023-04-30T09:26:00.761Z,8.70
2023-04-30T09:28:29.004Z,8.70
2023-04-30T09:30:59.553Z,8.70
2023-04-30T09:33:26.520Z,8.70
2023-04-30T09:35:53.446Z,8.80
2023-04-30T09:38:31.725Z,8.80
2023-04-30T09:41:00.448Z,8.60
2023-04-30T09:43:31.222Z,8.60
2023-04-30T09:45:59.899Z,8.70
2023-04-30T09:48:31.659Z,8.70
2023-04-30T09:50:58.672Z,8.70
2023-04-30T09:53:25.689Z,8.80
2023-04-30T09:55:53.103Z,8.80
2023-04-30T09:58:20.480Z,8.90
2023-04-30T10:00:50.450Z,8.90
2023-04-30T10:03:17.397Z,8.90
2023-04-30T10:05:49.054Z,8.90
2023-04-30T10:08:25.890Z,8.90
2023-04-30T10:11:03.766Z,8.90
2023-04-30T10:14:11.958Z,8.90
2023-04-30T10:17:04.088Z,8.80
2023-04-30T10:19:33.271Z,8.90
2023-04-30T10:22:01.782Z,8.90
2023-04-30T10:24:29.086Z,8.90
2023-04-30T10:26:57.376Z,8.90
2023-04-30T10:29:24.253Z,8.80
2023-04-30T10:31:53.158Z,8.90
2023-04-30T10:34:46.080Z,8.80
2023-04-30T10:37:50.459Z,8.90
2023-04-30T10:40:19.303Z,8.90
2023-04-30T10:42:50.184Z,9.00
2023-04-30T10:45:17.474Z,9.00
2023-04-30T10:47:47.625Z,9.00
2023-04-30T10:50:14.596Z,9.10
2023-04-30T10:52:41.517Z,9.20
2023-04-30T10:55:09.989Z,9.20
2023-04-30T10:57:46.664Z,9.30
2023-04-30T11:00:14.596Z,9.50
2023-04-30T11:02:47.335Z,9.60
2023-04-30T11:05:19.592Z,9.60
2023-04-30T11:07:51.481Z,9.60
2023-04-30T11:10:23.331Z,9.50
2023-04-30T11:12:55.038Z,9.50
2023-04-30T11:15:25.821Z,9.60
2023-04-30T11:17:58.572Z,9.50
2023-04-30T11:20:26.608Z,9.60
2023-04-30T11:23:19.622Z,9.60
2023-04-30T11:25:55.042Z,9.50
2023-04-30T11:28:25.429Z,9.40
2023-04-30T11:30:59.803Z,9.50
2023-04-30T11:33:29.119Z,9.50
2023-04-30T11:35:57.144Z,9.50
2023-04-30T11:38:34.039Z,9.60
2023-04-30T11:41:02.427Z,9.70
2023-04-30T11:43:31.396Z,9.70
2023-04-30T11:46:08.383Z,9.90
2023-04-30T11:48:45.865Z,9.90
2023-04-30T11:51:24.197Z,9.90
2023-04-30T11:53:52.913Z,10.10
2023-04-30T11:56:26.259Z,10.20
2023-04-30T11:58:55.841Z,10.30
2023-04-30T12:01:26.815Z,10.40
2023-04-30T12:03:57.570Z,10.30
2023-04-30T12:06:27.744Z,10.40
2023-04-30T12:09:00.164Z,10.50
2023-04-30T12:11:29.741Z,10.60
2023-04-30T12:14:04.484Z,10.50
2023-04-30T12:16:49.491Z,10.50
2023-04-30T12:19:17.565Z,10.40
2023-04-30T12:21:49.337Z,10.30
2023-04-30T12:24:17.789Z,10.20
2023-04-30T12:26:45.280Z,10.20
2023-04-30T12:29:16.171Z,10.20
2023-04-30T12:31:43.773Z,10.30
2023-04-30T12:34:14.848Z,10.20
2023-04-30T12:36:45.045Z,10.30
2023-04-30T12:39:16.387Z,10.40
2023-04-30T12:41:48.876Z,10.40
2023-04-30T12:44:24.754Z,10.50
2023-04-30T12:46:56.249Z,10.40
2023-04-30T12:49:41.374Z,10.50
2023-04-30T12:52:13.108Z,10.60
2023-04-30T12:54:40.456Z,10.70
2023-04-30T12:57:13.063Z,10.70
2023-04-30T12:59:56.955Z,10.80
2023-04-30T13:02:26.201Z,10.70
2023-04-30T13:04:53.913Z,10.90
